createdAt,value
2022-12-16T00:01:14.864Z,15.07
2022-12-16T00:03:49.296Z,19.67
2022-12-16T00:06:22.419Z,21.83
2022-12-16T00:08:53.667Z,18.73
2022-12-16T00:11:23.881Z,20.53
2022-12-16T00:13:55.241Z,18.27
2022-12-16T00:16:24.591Z,17.33
2022-12-16T00:18:54.842Z,17.60
2022-12-16T00:21:28.809Z,16.77
2022-12-16T00:23:58.726Z,17.03
2022-12-16T00:26:27.591Z,14.00
2022-12-16T00:28:56.495Z,13.90
2022-12-16T00:31:25.433Z,13.80
2022-12-16T00:34:00.224Z,17.20
2022-12-16T00:36:30.814Z,18.60
2022-12-16T00:38:59.966Z,20.60
2022-12-16T00:41:30.109Z,15.83
2022-12-16T00:43:58.930Z,15.73
2022-12-16T00:46:28.227Z,17.53
2022-12-16T00:48:59.208Z,20.13
2022-12-16T00:51:28.255Z,16.90
2022-12-16T00:53:57.609Z,14.43
2022-12-16T00:56:28.568Z,19.23
2022-12-16T00:58:58.598Z,17.83
2022-12-16T01:01:28.672Z,21.47
2022-12-16T01:03:59.387Z,19.27
2022-12-16T01:06:28.632Z,18.67
2022-12-16T01:08:58.173Z,19.47
2022-12-16T01:11:27.224Z,18.77
2022-12-16T01:14:09.842Z,16.00
2022-12-16T01:16:40.543Z,17.83
2022-12-16T01:19:11.351Z,21.03
2022-12-16T01:21:40.409Z,22.27
2022-12-16T01:24:10.957Z,20.97
2022-12-16T01:26:40.424Z,14.13
2022-12-16T01:29:10.145Z,20.43
2022-12-16T01:31:38.997Z,22.97
2022-12-16T01:34:11.511Z,14.87
2022-12-16T01:36:41.950Z,20.97
2022-12-16T01:39:11.208Z,20.07
2022-12-16T01:41:40.175Z,22.33
2022-12-16T01:44:16.724Z,20.80
2022-12-16T01:46:54.901Z,20.43
2022-12-16T01:49:28.533Z,20.80
2022-12-16T01:52:04.130Z,21.00
2022-12-16T01:54:38.250Z,18.77
2022-12-16T01:57:10.744Z,19.67
2022-12-16T01:59:45.853Z,17.97
2022-12-16T02:02:16.129Z,22.10
2022-12-16T02:05:07.615Z,20.70
2022-12-16T02:07:38.542Z,18.77
2022-12-16T02:10:08.652Z,20.67
2022-12-16T02:12:47.450Z,21.20
2022-12-16T02:15:28.354Z,20.23
2022-12-16T02:18:04.782Z,22.30
2022-12-16T02:21:01.307Z,21.33
2022-12-16T02:23:56.852Z,22.23
2022-12-16T02:26:50.680Z,21.87
2022-12-16T02:29:38.162Z,22.37
2022-12-16T02:32:19.441Z,18.73
2022-12-16T02:34:58.650Z,20.23
2022-12-16T02:37:39.224Z,22.03
2022-12-16T02:40:18.250Z,18.10
2022-12-16T02:42:51.611Z,19.37
2022-12-16T02:45:26.470Z,21.07
2022-12-16T02:47:57.178Z,15.83
2022-12-16T02:50:31.977Z,20.00
2022-12-16T02:53:02.955Z,18.57
2022-12-16T02:55:41.202Z,23.73
2022-12-16T02:58:21.064Z,21.00
2022-12-16T03:00:57.469Z,23.50
2022-12-16T03:03:35.678Z,21.70
2022-12-16T03:06:06.709Z,21.40
2022-12-16T03:08:39.641Z,21.73
2022-12-16T03:11:09.631Z,22.03
2022-12-16T03:13:42.985Z,20.17
2022-12-16T03:16:15.016Z,22.17
2022-12-16T03:18:50.522Z,24.83
2022-12-16T03:21:24.435Z,17.37
2022-12-16T03:23:56.091Z,22.37
2022-12-16T03:26:30.410Z,20.63
2022-12-16T03:29:05.404Z,17.23
2022-12-16T03:31:40.098Z,24.23
2022-12-16T03:34:16.930Z,18.63
2022-12-16T03:36:50.929Z,21.47
2022-12-16T03:39:23.425Z,19.80
2022-12-16T03:41:55.105Z,21.73
2022-12-16T03:44:26.670Z,20.20
2022-12-16T03:46:56.214Z,20.90
2022-12-16T03:49:27.138Z,22.07
2022-12-16T03:51:56.753Z,22.90
2022-12-16T03:54:27.941Z,21.17
2022-12-16T03:56:57.882Z,20.57
2022-12-16T03:59:35.459Z,21.60
2022-12-16T04:02:05.018Z,21.77
2022-12-16T04:04:35.771Z,22.33
2022-12-16T04:07:25.313Z,16.70
2022-12-16T04:09:54.722Z,21.03
2022-12-16T04:12:40.937Z,20.83
2022-12-16T04:15:28.434Z,20.70
2022-12-16T04:18:14.595Z,20.33
2022-12-16T04:21:06.357Z,24.63
2022-12-16T04:23:54.632Z,21.67
2022-12-16T04:26:24.371Z,21.30
2022-12-16T04:28:54.090Z,20.23
2022-12-16T04:31:22.973Z,19.97
2022-12-16T04:34:09.386Z,21.70
2022-12-16T04:36:56.599Z,21.97
2022-12-16T04:39:42.779Z,22.50
2022-12-16T04:42:28.880Z,17.93
2022-12-16T04:45:14.926Z,21.03
2022-12-16T04:48:01.088Z,18.07
2022-12-16T04:50:47.128Z,19.43
2022-12-16T04:53:35.057Z,18.87
2022-12-16T04:56:21.854Z,22.50
2022-12-16T04:59:08.041Z,25.53
2022-12-16T05:01:54.334Z,21.37
2022-12-16T05:04:40.551Z,19.90
2022-12-16T05:07:26.871Z,15.80
2022-12-16T05:10:14.797Z,18.70
2022-12-16T05:13:01.200Z,20.33
2022-12-16T05:15:47.439Z,22.40
2022-12-16T05:18:35.110Z,16.70
2022-12-16T05:21:22.081Z,19.77
2022-12-16T05:24:08.517Z,18.07
2022-12-16T05:26:56.306Z,18.47
2022-12-16T05:29:42.363Z,18.40
2022-12-16T05:32:28.643Z,18.17
2022-12-16T05:35:16.752Z,17.03
2022-12-16T05:38:05.844Z,19.27
2022-12-16T05:40:52.083Z,20.20
2022-12-16T05:43:48.599Z,14.97
2022-12-16T05:46:34.845Z,16.07
2022-12-16T05:49:24.140Z,17.80
2022-12-16T05:52:10.440Z,15.67
2022-12-16T05:54:56.627Z,19.10
2022-12-16T05:57:42.668Z,15.07
2022-12-16T06:00:31.756Z,15.77
2022-12-16T06:03:17.739Z,14.47
2022-12-16T06:06:04.666Z,17.40
2022-12-16T06:08:50.572Z,17.43
2022-12-16T06:11:36.591Z,15.10
2022-12-16T06:14:23.195Z,14.97
2022-12-16T06:17:13.093Z,14.07
2022-12-16T06:19:59.594Z,15.13
2022-12-16T06:22:46.116Z,15.07
2022-12-16T06:25:32.396Z,15.03
2022-12-16T06:28:18.278Z,13.67
2022-12-16T06:31:04.821Z,14.53
2022-12-16T06:33:54.975Z,13.30
2022-12-16T06:36:41.630Z,12.60
2022-12-16T06:39:27.925Z,12.73
2022-12-16T06:42:16.178Z,13.17
2022-12-16T06:45:02.140Z,13.47
2022-12-16T06:47:48.427Z,12.10
2022-12-16T06:50:37.910Z,14.70
2022-12-16T06:53:41.607Z,14.73
2022-12-16T06:56:29.455Z,11.83
2022-12-16T06:59:15.459Z,12.70
2022-12-16T07:02:01.807Z,15.03
2022-12-16T07:04:48.123Z,12.20
2022-12-16T07:07:36.403Z,11.10
2022-12-16T07:10:38.188Z,13.07
2022-12-16T07:13:24.392Z,14.90
2022-12-16T07:16:12.089Z,10.97
2022-12-16T07:18:58.226Z,12.07
2022-12-16T07:21:44.996Z,12.13
2022-12-16T07:24:33.020Z,15.50
2022-12-16T07:27:19.043Z,10.97
2022-12-16T07:30:05.287Z,9.63
2022-12-16T07:32:51.466Z,11.80
2022-12-16T07:35:37.886Z,11.57
2022-12-16T07:38:24.669Z,10.67
2022-12-16T07:41:12.496Z,10.67
2022-12-16T07:43:58.874Z,10.67
2022-12-16T07:46:44.795Z,10.07
2022-12-16T07:49:31.794Z,12.00
2022-12-16T07:52:18.460Z,12.13
2022-12-16T07:55:04.355Z,11.40
2022-12-16T07:57:52.170Z,11.70
2022-12-16T08:00:39.076Z,10.77
2022-12-16T08:03:25.343Z,10.67
2022-12-16T08:06:11.356Z,11.70
2022-12-16T08:08:57.437Z,12.07
2022-12-16T08:11:43.382Z,10.73
2022-12-16T08:14:31.690Z,10.70
2022-12-16T08:17:18.689Z,10.67
2022-12-16T08:20:06.815Z,13.03
2022-12-16T08:22:53.332Z,11.90
2022-12-16T08:25:41.965Z,8.83
2022-12-16T08:28:28.449Z,11.10
2022-12-16T08:31:16.346Z,11.50
2022-12-16T08:34:02.713Z,10.90
2022-12-16T08:36:49.338Z,8.30
2022-12-16T08:39:35.952Z,7.77
2022-12-16T08:42:22.582Z,8.27
2022-12-16T08:45:09.049Z,8.87
2022-12-16T08:47:56.712Z,7.47
2022-12-16T08:50:43.634Z,7.77
2022-12-16T08:53:29.971Z,8.67
2022-12-16T08:56:16.260Z,8.43
2022-12-16T08:59:02.798Z,9.30
2022-12-16T09:01:49.163Z,7.77
2022-12-16T09:04:36.903Z,9.00
2022-12-16T09:07:22.879Z,9.47
2022-12-16T09:10:09.165Z,12.30
2022-12-16T09:12:55.108Z,12.13
2022-12-16T09:15:42.479Z,11.87
2022-12-16T09:18:29.840Z,10.63
2022-12-16T09:21:30.292Z,10.07
2022-12-16T09:24:19.340Z,10.50
2022-12-16T09:27:05.485Z,10.30
2022-12-16T09:29:51.944Z,11.47
2022-12-16T09:32:38.619Z,9.80
2022-12-16T09:35:25.411Z,11.43
2022-12-16T09:38:15.431Z,10.23
2022-12-16T09:41:01.892Z,11.43
2022-12-16T09:44:08.792Z,11.83
2022-12-16T09:47:08.631Z,12.80
2022-12-16T09:50:04.145Z,11.73
2022-12-16T09:52:55.715Z,13.53
2022-12-16T09:55:48.793Z,12.20
2022-12-16T09:58:35.886Z,14.17
2022-12-16T10:01:22.076Z,10.03
2022-12-16T10:04:08.270Z,15.77
2022-12-16T10:07:01.606Z,13.50
2022-12-16T10:09:54.239Z,14.70
2022-12-16T10:12:50.875Z,13.63
2022-12-16T10:15:52.685Z,11.93
2022-12-16T10:18:48.490Z,14.70
2022-12-16T10:21:39.577Z,16.00
2022-12-16T10:24:47.933Z,14.53
2022-12-16T10:27:35.672Z,12.00
2022-12-16T10:30:32.218Z,14.67
2022-12-16T10:33:19.218Z,14.83
2022-12-16T10:36:08.527Z,14.73
2022-12-16T10:39:01.256Z,14.33
2022-12-16T10:41:51.826Z,12.57
2022-12-16T10:44:42.709Z,13.97
2022-12-16T10:47:30.969Z,14.53
2022-12-16T10:50:18.109Z,16.00
2022-12-16T10:53:12.588Z,14.33
2022-12-16T10:56:09.900Z,16.97
2022-12-16T10:59:05.389Z,17.57
2022-12-16T11:01:52.109Z,17.43
2022-12-16T11:04:51.882Z,19.57
2022-12-16T11:07:50.282Z,16.23
2022-12-16T11:10:50.669Z,16.47
2022-12-16T11:13:51.954Z,15.67
2022-12-16T11:16:40.726Z,17.77
2022-12-16T11:19:38.441Z,15.97
2022-12-16T11:22:32.574Z,17.77
2022-12-16T11:25:32.684Z,16.23
2022-12-16T11:28:23.360Z,19.03
2022-12-16T11:31:12.591Z,18.07
2022-12-16T11:33:59.691Z,18.07
2022-12-16T11:36:46.514Z,14.93
2022-12-16T11:39:36.744Z,14.67
2022-12-16T11:42:26.570Z,17.03
2022-12-16T11:45:15.179Z,19.60
2022-12-16T11:48:09.851Z,19.03
2022-12-16T11:51:01.187Z,16.80
2022-12-16T11:53:58.442Z,16.27
2022-12-16T11:56:51.896Z,16.20
2022-12-16T11:59:48.787Z,17.80
2022-12-16T12:02:45.320Z,20.50
2022-12-16T12:05:32.410Z,19.10
2022-12-16T12:08:28.689Z,20.13
2022-12-16T12:11:23.709Z,23.90
2022-12-16T12:14:29.763Z,22.27
2022-12-16T12:17:26.506Z,20.10
2022-12-16T12:20:37.521Z,19.47
2022-12-16T12:23:29.118Z,20.73
2022-12-16T12:26:30.049Z,19.20
2022-12-16T12:29:26.819Z,21.53
2022-12-16T12:32:21.964Z,19.57
2022-12-16T12:35:15.975Z,22.93
2022-12-16T12:38:11.271Z,19.90
2022-12-16T12:41:07.145Z,21.40
2022-12-16T12:44:03.750Z,19.17
2022-12-16T12:47:01.239Z,23.43
2022-12-16T12:49:56.624Z,20.10
2022-12-16T12:53:06.533Z,23.67
2022-12-16T12:56:00.246Z,22.73
2022-12-16T12:58:51.456Z,19.63
2022-12-16T13:01:41.542Z,23.97
2022-12-16T13:04:36.605Z,22.47
2022-12-16T13:07:24.008Z,22.07
2022-12-16T13:10:36.996Z,23.30
2022-12-16T13:13:50.092Z,21.60
2022-12-16T13:17:25.812Z,23.70
2022-12-16T13:20:15.720Z,19.47
2022-12-16T13:23:06.300Z,25.40
2022-12-16T13:25:57.476Z,22.27
2022-12-16T13:28:46.757Z,21.40
2022-12-16T13:31:43.136Z,21.30
2022-12-16T13:34:46.244Z,24.60
2022-12-16T13:37:42.620Z,24.27
2022-12-16T13:40:38.725Z,22.93
2022-12-16T13:44:00.784Z,21.90
2022-12-16T13:47:03.044Z,23.07
2022-12-16T13:50:07.764Z,25.63
2022-12-16T13:53:07.700Z,26.63
2022-12-16T13:55:58.509Z,22.67
2022-12-16T13:58:56.934Z,22.23
2022-12-16T14:01:48.720Z,25.70
2022-12-16T14:04:44.307Z,19.70
2022-12-16T14:07:39.272Z,25.23
2022-12-16T14:10:41.632Z,24.40
2022-12-16T14:13:36.733Z,23.00
2022-12-16T14:16:30.789Z,23.57
2022-12-16T14:19:30.097Z,24.50
2022-12-16T14:22:32.866Z,25.13
2022-12-16T14:25:28.012Z,16.40
2022-12-16T14:28:16.356Z,27.73
2022-12-16T14:31:03.203Z,26.47
2022-12-16T14:33:49.667Z,23.73
2022-12-16T14:36:41.733Z,24.13
2022-12-16T14:39:39.779Z,25.83
2022-12-16T14:42:39.310Z,25.70
2022-12-16T14:45:47.259Z,25.43
2022-12-16T14:48:49.591Z,17.03
2022-12-16T14:51:48.896Z,24.83
2022-12-16T14:54:40.990Z,24.27
2022-12-16T14:57:34.990Z,19.70
2022-12-16T15:00:32.993Z,29.47
2022-12-16T15:03:24.607Z,27.50
2022-12-16T15:06:12.035Z,24.67
2022-12-16T15:09:05.714Z,28.03
2022-12-16T15:11:57.718Z,24.97
2022-12-16T15:14:49.441Z,26.50
2022-12-16T15:17:40.763Z,28.77
2022-12-16T15:20:38.027Z,21.70
2022-12-16T15:23:40.042Z,24.47
2022-12-16T15:26:27.168Z,22.03
2022-12-16T15:29:18.348Z,27.93
2022-12-16T15:32:08.319Z,22.33
2022-12-16T15:35:05.383Z,26.97
2022-12-16T15:38:02.161Z,26.17
2022-12-16T15:40:52.319Z,25.97
2022-12-16T15:43:48.312Z,28.20
2022-12-16T15:46:41.878Z,27.47
2022-12-16T15:49:38.445Z,24.37
2022-12-16T15:52:51.053Z,29.10
2022-12-16T15:55:53.018Z,21.03
2022-12-16T15:58:43.688Z,29.93
2022-12-16T16:01:32.393Z,20.07
2022-12-16T16:04:20.085Z,23.23
2022-12-16T16:07:08.543Z,26.40
2022-12-16T16:09:57.510Z,27.17
2022-12-16T16:12:45.015Z,25.63
2022-12-16T16:15:33.608Z,28.50
2022-12-16T16:18:23.028Z,27.97
2022-12-16T16:21:10.693Z,23.63
2022-12-16T16:23:57.301Z,22.57
2022-12-16T16:26:46.513Z,19.37
2022-12-16T16:29:33.253Z,24.03
2022-12-16T16:32:20.990Z,26.23
2022-12-16T16:35:07.263Z,25.37
2022-12-16T16:37:54.852Z,26.67
2022-12-16T16:40:49.423Z,22.00
2022-12-16T16:43:36.242Z,24.90
2022-12-16T16:46:32.011Z,29.50
2022-12-16T16:49:19.219Z,19.40
2022-12-16T16:52:05.164Z,29.30
2022-12-16T16:54:52.998Z,20.73
2022-12-16T16:57:38.932Z,30.90
2022-12-16T17:00:26.504Z,27.87
2022-12-16T17:03:12.693Z,28.33
2022-12-16T17:05:59.361Z,29.80
2022-12-16T17:09:00.355Z,27.10
2022-12-16T17:11:48.639Z,28.97
2022-12-16T17:14:39.367Z,31.67
2022-12-16T17:17:26.488Z,27.27
2022-12-16T17:20:12.802Z,30.83
2022-12-16T17:22:58.997Z,29.27
2022-12-16T17:25:45.205Z,26.47
2022-12-16T17:28:32.945Z,30.30
2022-12-16T17:31:19.137Z,28.70
2022-12-16T17:34:05.212Z,24.67
2022-12-16T17:36:51.343Z,26.00
2022-12-16T17:39:37.151Z,28.43
2022-12-16T17:42:23.680Z,23.47
2022-12-16T17:45:11.012Z,27.80
2022-12-16T17:47:57.340Z,28.53
2022-12-16T17:50:43.309Z,28.17
2022-12-16T17:53:29.403Z,28.10
2022-12-16T17:56:32.698Z,29.53
2022-12-16T17:59:19.694Z,42.13
2022-12-16T18:02:07.428Z,30.00
2022-12-16T18:04:53.644Z,30.37
2022-12-16T18:07:39.895Z,33.07
2022-12-16T18:10:28.109Z,29.97
2022-12-16T18:13:14.531Z,34.90
2022-12-16T18:16:00.998Z,33.23
2022-12-16T18:18:49.122Z,31.03
2022-12-16T18:21:35.063Z,39.25
2022-12-16T18:24:24.959Z,34.03
2022-12-16T18:27:14.814Z,31.53
2022-12-16T18:30:00.997Z,29.97
2022-12-16T18:32:49.090Z,31.50
2022-12-16T18:35:37.363Z,28.50
2022-12-16T18:38:24.397Z,27.50
2022-12-16T18:41:10.510Z,32.00
2022-12-16T18:46:56.446Z,26.90
2022-12-16T18:49:46.216Z,28.47
2022-12-16T18:52:33.833Z,31.23
2022-12-16T18:55:20.449Z,31.97
2022-12-16T18:58:21.098Z,31.33
2022-12-16T19:01:20.183Z,29.63
2022-12-16T19:04:06.794Z,21.20
2022-12-16T19:06:53.183Z,22.63
2022-12-16T19:09:53.497Z,25.97
2022-12-16T19:12:40.522Z,31.00
2022-12-16T19:15:30.076Z,30.27
2022-12-16T19:18:16.074Z,31.27
2022-12-16T19:21:03.605Z,31.87
2022-12-16T19:23:49.716Z,30.63
2022-12-16T19:26:37.402Z,32.80
2022-12-16T19:29:23.397Z,26.30
2022-12-16T19:32:09.686Z,17.67
2022-12-16T19:34:56.915Z,27.93
2022-12-16T19:37:43.302Z,30.80
2022-12-16T19:40:30.178Z,32.03
2022-12-16T19:43:17.853Z,33.53
2022-12-16T19:46:12.009Z,28.10
2022-12-16T19:48:59.127Z,27.27
2022-12-16T19:51:45.547Z,28.17
2022-12-16T19:54:31.776Z,25.43
2022-12-16T19:57:17.864Z,20.27
2022-12-16T20:00:05.956Z,24.90
2022-12-16T20:02:52.294Z,18.17
2022-12-16T20:05:39.615Z,19.40
2022-12-16T20:08:25.820Z,17.97
2022-12-16T20:11:11.652Z,18.17
2022-12-16T20:13:57.987Z,21.40
2022-12-16T20:16:46.285Z,20.33
2022-12-16T20:19:32.387Z,21.27
2022-12-16T20:22:18.658Z,22.27
2022-12-16T20:25:05.019Z,19.63
2022-12-16T20:27:50.876Z,19.90
2022-12-16T20:30:38.611Z,20.03
2022-12-16T20:33:31.276Z,19.00
2022-12-16T20:36:18.291Z,19.67
2022-12-16T20:39:06.076Z,21.40
2022-12-16T20:41:56.268Z,19.00
2022-12-16T20:44:42.936Z,19.27
2022-12-16T20:47:29.593Z,17.77
2022-12-16T20:50:17.830Z,19.30
2022-12-16T20:53:09.610Z,18.87
2022-12-16T20:55:56.201Z,16.97
2022-12-16T20:58:42.610Z,15.93
2022-12-16T21:01:29.116Z,18.77
2022-12-16T21:04:16.112Z,18.77
2022-12-16T21:07:03.662Z,18.23
2022-12-16T21:09:51.782Z,16.80
2022-12-16T21:12:38.325Z,18.00
2022-12-16T21:15:26.942Z,17.20
2022-12-16T21:18:12.955Z,19.33
2022-12-16T21:20:59.347Z,18.33
2022-12-16T21:23:47.389Z,18.67
2022-12-16T21:26:35.529Z,18.33
2022-12-16T21:29:21.723Z,20.10
2022-12-16T21:32:12.802Z,17.20
2022-12-16T21:34:59.266Z,16.13
2022-12-16T21:37:45.845Z,16.80
2022-12-16T21:40:34.092Z,18.60
2022-12-16T21:43:20.573Z,14.00
2022-12-16T21:46:11.126Z,17.07
2022-12-16T21:48:57.699Z,18.37
2022-12-16T21:51:48.072Z,18.30
2022-12-16T21:54:34.302Z,18.47
2022-12-16T21:57:22.297Z,15.10
2022-12-16T22:00:08.899Z,16.77
2022-12-16T22:02:56.327Z,16.37
2022-12-16T22:05:44.306Z,17.90
2022-12-16T22:08:31.221Z,17.17
2022-12-16T22:11:23.619Z,16.27
2022-12-16T22:14:11.152Z,15.53
2022-12-16T22:16:57.285Z,17.43
2022-12-16T22:19:44.044Z,15.73
2022-12-16T22:22:30.723Z,16.47
2022-12-16T22:25:16.612Z,17.67
2022-12-16T22:28:02.854Z,19.20
2022-12-16T22:30:50.706Z,16.63
2022-12-16T22:33:38.894Z,19.90
2022-12-16T22:36:28.094Z,17.17
2022-12-16T22:39:15.092Z,16.40
2022-12-16T22:42:01.832Z,18.20
2022-12-16T22:44:48.118Z,16.00
2022-12-16T22:47:35.794Z,17.70
2022-12-16T22:50:22.416Z,19.20
2022-12-16T22:53:09.589Z,15.23
2022-12-16T22:56:01.657Z,15.43
2022-12-16T22:58:48.260Z,16.30
2022-12-16T23:01:34.898Z,14.33
2022-12-16T23:04:24.005Z,16.40
2022-12-16T23:07:11.057Z,16.97
2022-12-16T23:09:58.190Z,14.10
2022-12-16T23:12:51.553Z,16.43
2022-12-16T23:15:39.384Z,16.43
2022-12-16T23:18:36.836Z,17.07
2022-12-16T23:21:34.824Z,14.83
2022-12-16T23:24:21.588Z,16.47
2022-12-16T23:27:08.236Z,15.60
2022-12-16T23:29:59.312Z,15.83
2022-12-16T23:32:47.938Z,15.63
2022-12-16T23:35:37.320Z,15.23
2022-12-16T23:38:26.093Z,15.53
2022-12-16T23:41:20.345Z,14.60
2022-12-16T23:44:07.435Z,15.73
2022-12-16T23:46:53.929Z,15.30
2022-12-16T23:49:40.322Z,14.97
2022-12-16T23:52:27.121Z,17.67
2022-12-16T23:55:15.402Z,15.27
2022-12-16T23:58:09.110Z,15.27
